createdAt,value
2022-08-20T00:01:06.079Z,5.38
2022-08-20T00:02:44.063Z,5.85
2022-08-20T00:04:17.489Z,5.63
2022-08-20T00:05:56.741Z,5.93
2022-08-20T00:07:31.299Z,5.32
2022-08-20T00:09:05.792Z,6.05
2022-08-20T00:10:44.237Z,5.25
2022-08-20T00:12:22.032Z,5.50
2022-08-20T00:14:03.685Z,5.63
2022-08-20T00:15:38.959Z,5.68
2022-08-20T00:17:12.295Z,6.05
2022-08-20T00:18:47.627Z,5.50
2022-08-20T00:20:24.640Z,5.72
2022-08-20T00:21:58.705Z,5.90
2022-08-20T00:23:32.168Z,5.95
2022-08-20T00:25:08.207Z,5.88
2022-08-20T00:26:46.800Z,5.45
2022-08-20T00:28:26.120Z,5.63
2022-08-20T00:29:59.925Z,5.57
2022-08-20T00:31:33.760Z,5.43
2022-08-20T00:33:10.651Z,5.95
2022-08-20T00:34:44.110Z,5.95
2022-08-20T00:36:18.462Z,5.57
2022-08-20T00:37:51.930Z,5.57
2022-08-20T00:39:25.623Z,6.15
2022-08-20T00:40:59.596Z,5.93
2022-08-20T00:42:42.206Z,6.00
2022-08-20T00:44:22.510Z,6.40
2022-08-20T00:45:57.463Z,6.43
2022-08-20T00:47:30.757Z,6.07
2022-08-20T00:49:08.236Z,6.35
2022-08-20T00:50:41.627Z,6.22
2022-08-20T00:52:20.899Z,5.90
2022-08-20T00:53:57.596Z,6.10
2022-08-20T00:55:33.751Z,5.95
2022-08-20T00:57:12.544Z,5.68
2022-08-20T00:58:46.143Z,5.80
2022-08-20T01:00:27.046Z,6.00
2022-08-20T01:02:14.971Z,5.97
2022-08-20T01:03:55.553Z,5.93
2022-08-20T01:05:33.088Z,6.68
2022-08-20T01:07:12.006Z,5.95
2022-08-20T01:08:46.496Z,5.75
2022-08-20T01:10:28.970Z,5.40
2022-08-20T01:12:08.299Z,5.65
2022-08-20T01:13:49.279Z,5.65
2022-08-20T01:15:30.967Z,5.63
2022-08-20T01:17:14.393Z,5.63
2022-08-20T01:18:55.493Z,6.70
2022-08-20T01:20:36.914Z,5.90
2022-08-20T01:22:27.899Z,5.47
2022-08-20T01:24:11.938Z,5.35
2022-08-20T01:25:50.378Z,5.65
2022-08-20T01:27:25.510Z,5.95
2022-08-20T01:29:03.411Z,6.25
2022-08-20T01:30:37.766Z,5.40
2022-08-20T01:32:11.410Z,6.00
2022-08-20T01:33:46.781Z,5.53
2022-08-20T01:35:24.591Z,5.80
2022-08-20T01:36:59.563Z,5.50
2022-08-20T01:38:34.331Z,5.35
2022-08-20T01:40:15.409Z,5.80
2022-08-20T01:42:09.864Z,5.07
2022-08-20T01:43:42.559Z,4.85
2022-08-20T01:45:16.971Z,5.03
2022-08-20T01:46:55.638Z,5.68
2022-08-20T01:48:31.550Z,5.53
2022-08-20T01:50:18.780Z,5.55
2022-08-20T01:51:54.188Z,5.30
2022-08-20T01:53:34.396Z,5.28
2022-08-20T01:55:09.470Z,5.55
2022-08-20T01:56:59.054Z,5.57
2022-08-20T01:58:33.943Z,5.20
2022-08-20T02:00:19.794Z,5.35
2022-08-20T02:01:59.705Z,5.57
2022-08-20T02:03:39.700Z,5.78
2022-08-20T02:05:20.211Z,5.90
2022-08-20T02:07:00.307Z,5.30
2022-08-20T02:08:34.268Z,5.75
2022-08-20T02:10:10.428Z,6.30
2022-08-20T02:11:46.098Z,6.88
2022-08-20T02:13:20.920Z,6.57
2022-08-20T02:14:57.339Z,7.00
2022-08-20T02:16:37.645Z,6.55
2022-08-20T02:18:14.732Z,6.90
2022-08-20T02:19:54.695Z,7.15
2022-08-20T02:21:33.908Z,7.78
2022-08-20T02:23:08.486Z,7.75
2022-08-20T02:24:41.807Z,7.65
2022-08-20T02:26:18.890Z,8.55
2022-08-20T02:27:55.596Z,8.57
2022-08-20T02:29:30.404Z,9.27
2022-08-20T02:31:08.198Z,8.68
2022-08-20T02:32:44.439Z,9.48
2022-08-20T02:34:21.909Z,10.18
2022-08-20T02:35:57.654Z,10.95
2022-08-20T02:37:31.495Z,10.30
2022-08-20T02:39:05.647Z,11.25
2022-08-20T02:40:41.667Z,10.88
2022-08-20T02:42:15.166Z,10.65
2022-08-20T02:43:49.650Z,10.50
2022-08-20T02:45:23.983Z,11.13
2022-08-20T02:46:57.395Z,11.43
2022-08-20T02:48:31.548Z,11.13
2022-08-20T02:50:07.730Z,10.75
2022-08-20T02:51:41.414Z,10.27
2022-08-20T02:53:13.911Z,10.68
2022-08-20T02:54:47.972Z,10.57
2022-08-20T02:56:21.859Z,10.88
2022-08-20T02:57:55.716Z,11.35
2022-08-20T03:00:27.981Z,10.77
2022-08-20T03:02:02.887Z,11.20
2022-08-20T03:03:36.551Z,11.23
2022-08-20T03:05:11.121Z,11.40
2022-08-20T03:06:44.534Z,11.25
2022-08-20T03:08:17.636Z,11.68
2022-08-20T03:09:51.095Z,10.75
2022-08-20T03:11:24.672Z,11.40
2022-08-20T03:12:59.680Z,10.70
2022-08-20T03:14:33.611Z,10.48
2022-08-20T03:16:08.295Z,11.63
2022-08-20T03:17:43.204Z,11.90
2022-08-20T03:19:16.682Z,11.23
2022-08-20T03:20:52.145Z,12.93
2022-08-20T03:22:24.735Z,12.27
2022-08-20T03:23:58.451Z,12.35
2022-08-20T03:25:32.141Z,12.15
2022-08-20T03:27:06.407Z,11.73
2022-08-20T03:28:41.629Z,11.48
2022-08-20T03:30:17.723Z,12.20
2022-08-20T03:31:51.148Z,11.30
2022-08-20T03:33:26.703Z,11.80
2022-08-20T03:35:00.189Z,11.95
2022-08-20T03:36:33.812Z,10.77
2022-08-20T03:38:13.019Z,10.98
2022-08-20T03:39:46.748Z,11.23
2022-08-20T03:41:20.498Z,11.77
2022-08-20T03:42:53.878Z,11.85
2022-08-20T03:44:27.833Z,10.43
2022-08-20T03:46:02.148Z,11.73
2022-08-20T03:47:35.995Z,10.88
2022-08-20T03:49:10.914Z,11.05
2022-08-20T03:50:45.589Z,10.23
2022-08-20T03:52:19.375Z,11.13
2022-08-20T03:53:52.662Z,10.82
2022-08-20T03:55:27.727Z,11.20
2022-08-20T03:57:02.893Z,10.43
2022-08-20T03:58:37.774Z,10.38
2022-08-20T04:00:13.628Z,10.40
2022-08-20T04:01:48.189Z,11.02
2022-08-20T04:03:22.448Z,10.40
2022-08-20T04:04:57.282Z,10.27
2022-08-20T04:06:31.073Z,10.60
2022-08-20T04:08:05.501Z,11.15
2022-08-20T04:09:40.016Z,10.52
2022-08-20T04:11:13.683Z,10.70
2022-08-20T04:12:52.774Z,10.52
2022-08-20T04:14:26.709Z,11.27
2022-08-20T04:16:10.152Z,10.40
2022-08-20T04:17:51.324Z,11.05
2022-08-20T04:19:24.746Z,10.88
2022-08-20T04:20:59.508Z,11.80
2022-08-20T04:22:32.835Z,10.80
2022-08-20T04:24:07.614Z,10.85
2022-08-20T04:25:56.503Z,10.85
2022-08-20T04:27:32.495Z,10.75
2022-08-20T04:29:05.211Z,10.48
2022-08-20T04:30:38.886Z,10.35
2022-08-20T04:32:17.978Z,10.27
2022-08-20T04:33:51.680Z,10.00
2022-08-20T04:35:25.697Z,10.15
2022-08-20T04:37:00.356Z,10.52
2022-08-20T04:38:48.077Z,10.20
2022-08-20T04:40:41.689Z,9.88
2022-08-20T04:42:15.179Z,9.93
2022-08-20T04:43:49.307Z,11.32
2022-08-20T04:45:22.864Z,10.80
2022-08-20T04:46:56.355Z,10.48
2022-08-20T04:48:30.915Z,10.60
2022-08-20T04:50:10.535Z,9.57
2022-08-20T04:51:44.163Z,10.45
2022-08-20T04:53:25.789Z,10.93
2022-08-20T04:54:59.532Z,11.05
2022-08-20T04:56:39.858Z,10.68
2022-08-20T04:58:18.611Z,11.05
2022-08-20T04:59:55.567Z,10.57
2022-08-20T05:01:33.163Z,10.45
2022-08-20T05:03:07.134Z,11.40
2022-08-20T05:04:41.007Z,11.32
2022-08-20T05:06:15.962Z,11.32
2022-08-20T05:07:49.638Z,10.82
2022-08-20T05:09:25.126Z,10.98
2022-08-20T05:11:30.062Z,11.40
2022-08-20T05:12:56.464Z,11.10
2022-08-20T05:14:31.341Z,11.38
2022-08-20T05:16:05.404Z,11.23
2022-08-20T05:17:39.251Z,10.93
2022-08-20T05:19:14.548Z,10.23
2022-08-20T05:20:49.783Z,10.20
2022-08-20T05:22:24.323Z,9.52
2022-08-20T05:23:58.358Z,9.80
2022-08-20T05:25:33.910Z,10.30
2022-08-20T05:27:07.543Z,10.75
2022-08-20T05:28:54.373Z,10.07
2022-08-20T05:30:33.400Z,9.88
2022-08-20T05:32:08.028Z,10.90
2022-08-20T05:33:41.887Z,11.35
2022-08-20T05:35:15.227Z,10.18
2022-08-20T05:36:52.878Z,10.98
2022-08-20T05:38:30.918Z,10.38
2022-08-20T05:40:11.016Z,10.68
2022-08-20T05:41:46.095Z,9.88
2022-08-20T05:43:20.082Z,10.55
2022-08-20T05:44:53.385Z,10.80
2022-08-20T05:46:26.714Z,10.63
2022-08-20T05:48:00.305Z,10.27
2022-08-20T05:49:36.755Z,11.02
2022-08-20T05:51:15.034Z,10.98
2022-08-20T05:52:48.750Z,10.15
2022-08-20T05:54:23.830Z,10.43
2022-08-20T05:55:57.193Z,10.45
2022-08-20T05:57:31.847Z,10.70
2022-08-20T05:59:09.403Z,11.10
2022-08-20T06:00:42.815Z,11.40
2022-08-20T06:02:34.254Z,11.52
2022-08-20T06:04:28.556Z,11.25
2022-08-20T06:06:01.435Z,10.82
2022-08-20T06:07:35.024Z,10.90
2022-08-20T06:09:10.226Z,11.45
2022-08-20T06:10:44.463Z,12.70
2022-08-20T06:12:18.448Z,11.90
2022-08-20T06:13:52.147Z,11.75
2022-08-20T06:15:25.725Z,11.95
2022-08-20T06:17:05.657Z,12.25
2022-08-20T06:18:39.276Z,12.40
2022-08-20T06:20:13.631Z,12.57
2022-08-20T06:21:47.706Z,12.38
2022-08-20T06:23:23.127Z,12.88
2022-08-20T06:24:56.921Z,12.35
2022-08-20T06:26:31.752Z,12.02
2022-08-20T06:28:06.407Z,11.55
2022-08-20T06:29:41.658Z,12.48
2022-08-20T06:31:15.343Z,11.57
2022-08-20T06:32:49.174Z,11.52
2022-08-20T06:34:28.087Z,12.90
2022-08-20T06:36:02.664Z,12.45
2022-08-20T06:37:39.479Z,12.38
2022-08-20T06:39:12.982Z,12.27
2022-08-20T06:40:47.123Z,11.80
2022-08-20T06:42:21.869Z,11.98
2022-08-20T06:43:55.227Z,12.23
2022-08-20T06:45:33.598Z,12.55
2022-08-20T06:47:07.979Z,12.63
2022-08-20T06:48:42.336Z,12.07
2022-08-20T06:50:30.495Z,11.63
2022-08-20T06:52:05.663Z,12.38
2022-08-20T06:54:13.776Z,13.00
2022-08-20T06:55:52.746Z,12.55
2022-08-20T06:57:25.111Z,13.05
2022-08-20T06:58:58.713Z,12.10
2022-08-20T07:00:35.345Z,12.40
2022-08-20T07:02:09.955Z,13.43
2022-08-20T07:03:55.689Z,13.70
2022-08-20T07:05:29.765Z,13.65
2022-08-20T07:07:03.184Z,13.68
2022-08-20T07:08:37.121Z,13.05
2022-08-20T07:10:13.999Z,13.27
2022-08-20T07:11:56.639Z,13.32
2022-08-20T07:13:30.436Z,12.68
2022-08-20T07:15:06.054Z,12.90
2022-08-20T07:16:41.066Z,14.02
2022-08-20T07:18:15.185Z,13.13
2022-08-20T07:19:49.030Z,14.63
2022-08-20T07:21:22.371Z,14.32
2022-08-20T07:22:55.049Z,14.35
2022-08-20T07:24:33.257Z,14.07
2022-08-20T07:26:08.360Z,13.98
2022-08-20T07:27:43.499Z,14.90
2022-08-20T07:29:16.983Z,14.13
2022-08-20T07:31:14.336Z,13.80
2022-08-20T07:32:49.819Z,13.38
2022-08-20T07:34:23.198Z,14.05
2022-08-20T07:35:57.000Z,13.90
2022-08-20T07:37:30.437Z,13.48
2022-08-20T07:39:05.718Z,13.80
2022-08-20T07:40:39.883Z,12.68
2022-08-20T07:42:13.403Z,11.30
2022-08-20T07:43:48.976Z,10.73
2022-08-20T07:45:23.178Z,10.85
2022-08-20T07:46:56.859Z,10.38
2022-08-20T07:48:32.761Z,9.77
2022-08-20T07:50:09.270Z,9.60
2022-08-20T07:51:42.669Z,11.45
2022-08-20T07:53:16.965Z,9.15
2022-08-20T07:54:50.213Z,9.63
2022-08-20T07:56:24.958Z,9.50
2022-08-20T07:58:06.598Z,9.27
2022-08-20T07:59:40.087Z,9.05
2022-08-20T08:01:13.502Z,8.88
2022-08-20T08:02:47.083Z,8.75
2022-08-20T08:04:24.587Z,8.88
2022-08-20T08:05:57.992Z,8.68
2022-08-20T08:07:32.390Z,8.15
2022-08-20T08:09:14.310Z,7.97
2022-08-20T08:10:52.799Z,6.45
2022-08-20T08:12:39.258Z,6.18
2022-08-20T08:14:14.158Z,6.85
2022-08-20T08:15:50.395Z,6.88
2022-08-20T08:17:24.091Z,6.30
2022-08-20T08:18:58.392Z,5.95
2022-08-20T08:20:33.923Z,5.47
2022-08-20T08:22:21.226Z,6.30
2022-08-20T08:23:54.974Z,5.82
2022-08-20T08:25:28.875Z,5.38
2022-08-20T08:27:02.263Z,6.03
2022-08-20T08:28:36.951Z,6.57
2022-08-20T08:30:12.666Z,5.28
2022-08-20T08:31:46.383Z,5.53
2022-08-20T08:33:32.376Z,5.55
2022-08-20T08:35:09.083Z,5.45
2022-08-20T08:36:45.438Z,5.38
2022-08-20T08:38:18.979Z,5.53
2022-08-20T08:39:52.562Z,5.35
2022-08-20T08:41:32.023Z,5.05
2022-08-20T08:43:06.347Z,5.40
2022-08-20T08:44:43.263Z,5.78
2022-08-20T08:46:22.548Z,5.97
2022-08-20T08:47:59.323Z,6.40
2022-08-20T08:49:37.445Z,5.90
2022-08-20T08:51:16.351Z,6.40
2022-08-20T08:52:54.911Z,6.13
2022-08-20T08:54:32.390Z,5.57
2022-08-20T08:56:07.512Z,5.82
2022-08-20T08:57:41.870Z,5.75
2022-08-20T08:59:15.321Z,6.15
2022-08-20T09:00:57.616Z,6.30
2022-08-20T09:02:38.629Z,6.03
2022-08-20T09:04:13.239Z,6.40
2022-08-20T09:05:51.804Z,6.35
2022-08-20T09:07:32.324Z,6.72
2022-08-20T09:09:12.229Z,6.20
2022-08-20T09:10:46.234Z,6.25
2022-08-20T09:12:23.537Z,6.35
2022-08-20T09:13:58.478Z,6.13
2022-08-20T09:15:31.928Z,6.20
2022-08-20T09:17:06.645Z,6.05
2022-08-20T09:18:40.094Z,6.32
2022-08-20T09:20:14.244Z,5.68
2022-08-20T09:21:48.168Z,5.78
2022-08-20T09:23:22.044Z,5.40
2022-08-20T09:24:56.937Z,6.03
2022-08-20T09:26:30.503Z,6.00
2022-08-20T09:28:04.512Z,6.32
2022-08-20T09:29:39.618Z,5.88
2022-08-20T09:31:13.171Z,6.65
2022-08-20T09:32:50.642Z,5.80
2022-08-20T09:34:23.993Z,5.75
2022-08-20T09:35:57.360Z,6.25
2022-08-20T09:37:37.310Z,6.20
2022-08-20T09:39:12.486Z,5.40
2022-08-20T09:40:47.896Z,5.80
2022-08-20T09:42:24.751Z,5.22
2022-08-20T09:43:58.698Z,5.63
2022-08-20T09:45:32.748Z,5.65
2022-08-20T09:47:06.746Z,5.88
2022-08-20T09:48:40.000Z,5.95
2022-08-20T09:50:13.565Z,5.90
2022-08-20T09:51:46.976Z,5.57
2022-08-20T09:53:22.823Z,6.70
2022-08-20T09:55:02.446Z,9.10
2022-08-20T09:56:37.221Z,11.23
2022-08-20T09:58:21.579Z,13.27
2022-08-20T10:00:00.690Z,13.88
2022-08-20T10:01:34.845Z,16.08
2022-08-20T10:03:08.264Z,17.05
2022-08-20T10:04:41.916Z,15.32
2022-08-20T10:06:16.627Z,16.92
2022-08-20T10:07:50.200Z,17.08
2022-08-20T10:09:24.304Z,17.33
2022-08-20T10:10:57.615Z,18.98
2022-08-20T10:12:32.494Z,18.45
2022-08-20T10:14:07.256Z,19.35
2022-08-20T10:15:41.945Z,18.10
2022-08-20T10:17:16.560Z,18.27
2022-08-20T10:18:50.343Z,17.60
2022-08-20T10:20:24.959Z,17.27
2022-08-20T10:21:59.618Z,16.42
2022-08-20T10:23:33.558Z,16.85
2022-08-20T10:25:07.984Z,16.33
2022-08-20T10:26:41.503Z,16.58
2022-08-20T10:28:16.490Z,16.98
2022-08-20T10:29:50.443Z,16.50
2022-08-20T10:31:23.858Z,17.67
2022-08-20T10:32:57.310Z,16.77
2022-08-20T10:34:30.999Z,16.77
2022-08-20T10:36:08.483Z,16.77
2022-08-20T10:37:42.253Z,15.45
2022-08-20T10:39:16.605Z,15.65
2022-08-20T10:40:52.547Z,14.35
2022-08-20T10:42:26.009Z,14.02
2022-08-20T10:44:01.195Z,13.48
2022-08-20T10:45:35.246Z,14.30
2022-08-20T10:47:22.131Z,12.93
2022-08-20T10:48:55.852Z,12.75
2022-08-20T10:50:30.543Z,12.00
2022-08-20T10:52:05.922Z,12.73
2022-08-20T10:53:39.622Z,13.50
2022-08-20T10:55:12.971Z,12.63
2022-08-20T10:56:46.540Z,12.70
2022-08-20T10:58:20.312Z,12.93
2022-08-20T11:00:00.841Z,12.65
2022-08-20T11:01:36.928Z,12.60
2022-08-20T11:03:10.471Z,12.32
2022-08-20T11:04:44.805Z,11.95
2022-08-20T11:06:18.169Z,11.60
2022-08-20T11:07:56.549Z,11.15
2022-08-20T11:09:30.371Z,11.15
2022-08-20T11:11:04.625Z,11.75
2022-08-20T11:12:38.334Z,10.88
2022-08-20T11:14:11.761Z,11.20
2022-08-20T11:15:47.111Z,10.32
2022-08-20T11:17:23.011Z,10.02
2022-08-20T11:18:56.351Z,10.77
2022-08-20T11:20:31.399Z,10.93
2022-08-20T11:22:05.266Z,10.70
2022-08-20T11:23:38.639Z,9.75
2022-08-20T11:25:11.359Z,9.90
2022-08-20T11:26:48.659Z,9.25
2022-08-20T11:28:31.181Z,9.38
2022-08-20T11:30:08.471Z,10.80
2022-08-20T11:31:43.528Z,8.88
2022-08-20T11:33:16.947Z,9.10
2022-08-20T11:34:53.079Z,8.45
2022-08-20T11:36:27.086Z,8.00
2022-08-20T11:38:01.535Z,8.88
2022-08-20T11:39:37.484Z,8.07
2022-08-20T11:41:15.002Z,8.48
2022-08-20T11:43:11.162Z,9.05
2022-08-20T11:44:41.821Z,9.45
2022-08-20T11:46:15.482Z,9.23
2022-08-20T11:47:50.635Z,8.73
2022-08-20T11:49:23.970Z,9.02
2022-08-20T11:50:57.725Z,9.82
2022-08-20T11:52:31.669Z,8.45
2022-08-20T11:54:05.399Z,9.13
2022-08-20T11:55:40.855Z,8.90
2022-08-20T11:57:14.974Z,7.63
2022-08-20T11:58:48.897Z,8.90
2022-08-20T12:00:32.220Z,8.35
2022-08-20T12:02:11.706Z,7.15
2022-08-20T12:03:47.599Z,6.95
2022-08-20T12:05:21.503Z,7.85
2022-08-20T12:06:55.093Z,6.88
2022-08-20T12:08:30.386Z,6.07
2022-08-20T12:10:06.810Z,6.13
2022-08-20T12:11:40.899Z,5.78
2022-08-20T12:13:14.318Z,5.57
2022-08-20T12:14:47.763Z,6.03
2022-08-20T12:16:21.495Z,6.55
2022-08-20T12:17:56.043Z,5.97
2022-08-20T12:19:31.097Z,5.60
2022-08-20T12:21:04.591Z,5.45
2022-08-20T12:22:38.227Z,5.45
2022-08-20T12:24:11.593Z,4.35
2022-08-20T12:25:45.202Z,4.97
2022-08-20T12:27:23.049Z,4.18
2022-08-20T12:28:56.557Z,4.03
2022-08-20T12:30:29.952Z,7.28
2022-08-20T12:32:05.276Z,5.80
2022-08-20T12:33:38.673Z,5.28
2022-08-20T12:35:16.090Z,5.05
2022-08-20T12:36:49.524Z,4.70
2022-08-20T12:38:23.048Z,4.80
2022-08-20T12:39:59.943Z,4.40
2022-08-20T12:41:34.407Z,3.95
2022-08-20T12:43:08.442Z,4.43
2022-08-20T12:44:43.762Z,3.72
2022-08-20T12:46:17.432Z,4.75
2022-08-20T12:47:50.891Z,4.53
2022-08-20T12:49:24.243Z,4.30
2022-08-20T12:50:59.051Z,4.32
2022-08-20T12:52:33.983Z,4.22
2022-08-20T12:54:07.351Z,3.80
2022-08-20T12:55:40.775Z,3.63
2022-08-20T12:57:25.083Z,3.70
2022-08-20T12:58:58.376Z,3.13
2022-08-20T13:00:35.203Z,3.58
2022-08-20T13:02:14.441Z,3.63
2022-08-20T13:03:52.443Z,3.55
2022-08-20T13:05:27.448Z,3.40
2022-08-20T13:07:05.018Z,3.00
2022-08-20T13:08:42.609Z,2.92
2022-08-20T13:10:22.111Z,3.33
2022-08-20T13:11:55.652Z,3.00
2022-08-20T13:13:29.243Z,2.30
2022-08-20T13:15:01.824Z,2.83
2022-08-20T13:16:35.328Z,2.08
2022-08-20T13:18:09.410Z,2.60
2022-08-20T13:19:44.927Z,2.35
2022-08-20T13:21:21.107Z,3.10
2022-08-20T13:22:59.405Z,2.28
2022-08-20T13:24:32.870Z,2.40
2022-08-20T13:26:06.398Z,2.45
2022-08-20T13:27:43.043Z,3.05
2022-08-20T13:29:18.021Z,2.10
2022-08-20T13:30:51.614Z,1.80
2022-08-20T13:32:25.945Z,2.50
2022-08-20T13:33:59.454Z,2.20
2022-08-20T13:35:33.216Z,5.22
2022-08-20T13:37:14.204Z,2.72
2022-08-20T13:38:49.466Z,2.40
2022-08-20T13:40:23.117Z,2.33
2022-08-20T13:41:56.493Z,2.25
2022-08-20T13:43:29.794Z,2.22
2022-08-20T13:45:03.947Z,2.25
2022-08-20T13:46:38.420Z,2.00
2022-08-20T13:48:15.126Z,2.70
2022-08-20T13:49:56.624Z,2.22
2022-08-20T13:51:30.600Z,3.35
2022-08-20T13:53:04.350Z,2.58
2022-08-20T13:54:42.340Z,2.90
2022-08-20T13:56:16.013Z,2.33
2022-08-20T13:57:50.000Z,2.50
2022-08-20T13:59:24.116Z,1.70
2022-08-20T14:00:57.516Z,2.15
2022-08-20T14:02:31.140Z,1.85
2022-08-20T14:04:05.227Z,1.52
2022-08-20T14:05:39.764Z,1.77
2022-08-20T14:07:16.941Z,1.70
2022-08-20T14:08:50.257Z,1.50
2022-08-20T14:10:37.981Z,1.75
2022-08-20T14:12:13.316Z,1.73
2022-08-20T14:13:46.708Z,2.10
2022-08-20T14:15:20.215Z,2.45
2022-08-20T14:16:53.602Z,2.00
2022-08-20T14:18:26.941Z,2.20
2022-08-20T14:20:03.027Z,1.90
2022-08-20T14:21:37.054Z,2.10
2022-08-20T14:23:11.348Z,2.05
2022-08-20T14:24:45.553Z,2.70
2022-08-20T14:26:20.790Z,3.20
2022-08-20T14:27:55.415Z,2.17
2022-08-20T14:29:29.255Z,2.97
2022-08-20T14:31:09.315Z,3.65
2022-08-20T14:32:43.173Z,2.67
2022-08-20T14:34:16.758Z,3.00
2022-08-20T14:35:50.439Z,2.70
2022-08-20T14:37:28.291Z,2.28
2022-08-20T14:39:01.598Z,3.30
2022-08-20T14:40:36.714Z,2.40
2022-08-20T14:42:10.858Z,2.42
2022-08-20T14:43:44.342Z,2.90
2022-08-20T14:45:18.871Z,2.30
2022-08-20T14:46:52.215Z,3.05
2022-08-20T14:48:28.002Z,2.67
2022-08-20T14:50:06.546Z,2.50
2022-08-20T14:51:39.970Z,2.40
2022-08-20T14:53:13.493Z,2.30
2022-08-20T14:54:48.459Z,2.80
2022-08-20T14:56:22.083Z,2.40
2022-08-20T14:57:57.483Z,2.33
2022-08-20T14:59:30.177Z,2.35
2022-08-20T15:01:03.636Z,2.70
2022-08-20T15:02:38.150Z,2.90
2022-08-20T15:04:11.438Z,2.53
2022-08-20T15:05:45.342Z,2.78
2022-08-20T15:07:26.170Z,2.70
2022-08-20T15:08:59.804Z,2.90
2022-08-20T15:10:34.986Z,2.80
2022-08-20T15:12:08.842Z,2.72
2022-08-20T15:13:44.059Z,2.92
2022-08-20T15:15:19.511Z,2.97
2022-08-20T15:16:53.271Z,3.45
2022-08-20T15:18:26.935Z,3.35
2022-08-20T15:20:08.563Z,3.08
2022-08-20T15:21:53.446Z,3.50
2022-08-20T15:23:27.051Z,2.97
2022-08-20T15:25:00.390Z,3.03
2022-08-20T15:26:34.383Z,2.70
2022-08-20T15:28:10.906Z,3.35
2022-08-20T15:29:45.074Z,3.08
2022-08-20T15:31:18.624Z,3.17
2022-08-20T15:32:54.984Z,2.90
2022-08-20T15:34:28.936Z,3.00
2022-08-20T15:36:02.453Z,3.08
2022-08-20T15:37:40.307Z,3.75
2022-08-20T15:39:13.752Z,2.80
2022-08-20T15:40:47.483Z,2.83
2022-08-20T15:42:23.476Z,2.80
2022-08-20T15:43:57.954Z,2.83
2022-08-20T15:45:34.236Z,2.83
2022-08-20T15:47:23.774Z,3.65
2022-08-20T15:48:57.733Z,2.97
2022-08-20T15:51:03.935Z,3.33
2022-08-20T15:52:43.489Z,2.97
2022-08-20T15:54:22.724Z,3.30
2022-08-20T15:56:07.812Z,3.33
2022-08-20T15:57:56.435Z,3.72
2022-08-20T15:59:53.875Z,3.17
2022-08-20T16:01:43.138Z,3.60
2022-08-20T16:03:45.201Z,4.10
2022-08-20T16:05:33.355Z,3.78
2022-08-20T16:07:15.750Z,3.35
2022-08-20T16:09:15.538Z,3.28
2022-08-20T16:11:04.925Z,5.03
2022-08-20T16:12:42.082Z,4.22
2022-08-20T16:14:20.050Z,4.20
2022-08-20T16:15:57.618Z,4.90
2022-08-20T16:17:40.487Z,6.65
2022-08-20T16:19:22.404Z,6.20
2022-08-20T16:21:00.635Z,5.47
2022-08-20T16:22:43.976Z,6.60
2022-08-20T16:24:19.891Z,5.68
2022-08-20T16:26:18.963Z,6.13
2022-08-20T16:28:06.146Z,6.57
2022-08-20T16:29:54.538Z,5.40
2022-08-20T16:31:40.907Z,9.20
2022-08-20T16:33:32.083Z,4.68
2022-08-20T16:35:29.661Z,4.68
2022-08-20T16:37:17.962Z,5.15
2022-08-20T16:38:57.551Z,5.32
2022-08-20T16:40:39.806Z,5.53
2022-08-20T16:42:13.320Z,4.88
2022-08-20T16:43:53.132Z,5.00
2022-08-20T16:45:31.327Z,5.50
2022-08-20T16:47:18.202Z,4.93
2022-08-20T16:48:58.171Z,5.30
2022-08-20T16:50:40.898Z,5.75
2022-08-20T16:52:14.501Z,5.07
2022-08-20T16:53:48.122Z,4.78
2022-08-20T16:55:24.131Z,5.10
2022-08-20T16:57:06.063Z,4.22
2022-08-20T16:58:40.640Z,4.70
2022-08-20T17:00:23.508Z,4.57
2022-08-20T17:02:10.738Z,4.18
2022-08-20T17:03:51.262Z,4.03
2022-08-20T17:05:44.233Z,5.57
2022-08-20T17:07:31.066Z,4.70
2022-08-20T17:09:14.262Z,4.50
2022-08-20T17:11:02.432Z,4.40
2022-08-20T17:12:36.612Z,4.32
2022-08-20T17:14:14.375Z,4.78
2022-08-20T17:15:57.523Z,4.82
2022-08-20T17:17:35.498Z,4.45
2022-08-20T17:19:14.840Z,4.40
2022-08-20T17:20:48.666Z,4.93
2022-08-20T17:22:23.115Z,11.38
2022-08-20T17:24:01.229Z,47.53
2022-08-20T17:25:38.556Z,12.88
2022-08-20T17:27:16.908Z,6.68
2022-08-20T17:28:53.058Z,7.45
2022-08-20T17:30:36.635Z,4.63
2022-08-20T17:32:21.782Z,3.53
2022-08-20T17:33:55.092Z,4.47
2022-08-20T17:35:36.129Z,5.15
2022-08-20T17:37:22.349Z,5.53
2022-08-20T17:39:00.387Z,4.22
2022-08-20T17:40:45.923Z,4.40
2022-08-20T17:42:22.718Z,4.85
2022-08-20T17:44:03.461Z,5.25
2022-08-20T17:45:44.036Z,5.03
2022-08-20T17:47:24.562Z,5.60
2022-08-20T17:49:01.431Z,6.55
2022-08-20T17:50:40.458Z,8.13
2022-08-20T17:52:26.643Z,11.52
2022-08-20T17:54:15.627Z,11.27
2022-08-20T17:55:55.720Z,12.65
2022-08-20T17:57:38.403Z,9.80
2022-08-20T17:59:33.538Z,7.78
2022-08-20T18:01:15.779Z,6.68
2022-08-20T18:02:49.380Z,6.03
2022-08-20T18:04:22.989Z,5.60
2022-08-20T18:06:06.900Z,5.30
2022-08-20T18:08:02.435Z,4.65
2022-08-20T18:09:51.166Z,4.65
2022-08-20T18:11:33.073Z,4.03
2022-08-20T18:13:18.654Z,4.28
2022-08-20T18:15:09.051Z,4.15
2022-08-20T18:17:06.212Z,4.47
2022-08-20T18:18:55.048Z,3.80
2022-08-20T18:20:51.110Z,3.88
2022-08-20T18:22:30.186Z,4.72
2022-08-20T18:24:13.031Z,4.28
2022-08-20T18:25:53.955Z,4.38
2022-08-20T18:27:34.663Z,4.70
2022-08-20T18:29:16.236Z,4.70
2022-08-20T18:30:54.176Z,4.30
2022-08-20T18:32:35.512Z,5.03
2022-08-20T18:34:15.168Z,4.68
2022-08-20T18:35:48.527Z,4.57
2022-08-20T18:37:28.935Z,4.40
2022-08-20T18:39:08.914Z,4.28
2022-08-20T18:40:42.591Z,3.90
2022-08-20T18:42:30.040Z,4.68
2022-08-20T18:44:09.057Z,4.55
2022-08-20T18:45:43.828Z,4.40
2022-08-20T18:47:25.287Z,4.20
2022-08-20T18:49:02.900Z,4.55
2022-08-20T18:50:49.207Z,4.43
2022-08-20T18:52:29.434Z,4.50
2022-08-20T18:54:04.233Z,4.32
2022-08-20T18:55:44.368Z,4.40
2022-08-20T18:57:23.956Z,3.97
2022-08-20T18:59:03.703Z,4.35
2022-08-20T19:00:44.937Z,4.45
2022-08-20T19:02:25.231Z,3.80
2022-08-20T19:03:59.027Z,4.13
2022-08-20T19:05:43.759Z,4.53
2022-08-20T19:07:18.371Z,3.88
2022-08-20T19:09:02.126Z,4.80
2022-08-20T19:10:54.298Z,4.30
2022-08-20T19:13:27.238Z,4.22
2022-08-20T19:15:08.737Z,4.32
2022-08-20T19:16:48.250Z,4.35
2022-08-20T19:18:28.953Z,4.32
2022-08-20T19:20:06.136Z,4.40
2022-08-20T19:21:42.653Z,4.20
2022-08-20T19:23:24.826Z,4.50
2022-08-20T19:24:59.465Z,4.68
2022-08-20T19:26:43.710Z,4.32
2022-08-20T19:28:26.420Z,4.43
2022-08-20T19:29:59.980Z,4.32
2022-08-20T19:31:37.224Z,4.28
2022-08-20T19:33:11.134Z,4.20
2022-08-20T19:34:53.199Z,4.95
2022-08-20T19:36:28.310Z,4.53
2022-08-20T19:38:04.657Z,4.60
2022-08-20T19:39:38.667Z,4.15
2022-08-20T19:41:28.864Z,4.35
2022-08-20T19:43:14.846Z,4.05
2022-08-20T19:44:55.634Z,4.80
2022-08-20T19:46:40.615Z,3.97
2022-08-20T19:48:41.463Z,4.03
2022-08-20T19:50:24.590Z,4.72
2022-08-20T19:52:13.728Z,4.40
2022-08-20T19:53:49.931Z,5.05
2022-08-20T19:55:29.894Z,4.57
2022-08-20T19:57:08.327Z,4.30
2022-08-20T19:58:44.223Z,4.72
2022-08-20T20:00:18.339Z,4.65
2022-08-20T20:02:00.198Z,4.25
2022-08-20T20:03:38.742Z,4.20
2022-08-20T20:05:13.139Z,4.63
2022-08-20T20:06:49.953Z,4.20
2022-08-20T20:08:27.765Z,4.75
2022-08-20T20:10:01.724Z,4.70
2022-08-20T20:11:42.496Z,4.50
2022-08-20T20:13:21.258Z,4.60
2022-08-20T20:14:57.175Z,4.32
2022-08-20T20:16:31.299Z,4.85
2022-08-20T20:18:05.031Z,4.38
2022-08-20T20:19:46.425Z,4.38
2022-08-20T20:21:26.491Z,4.78
2022-08-20T20:23:13.543Z,4.88
2022-08-20T20:24:50.767Z,4.25
2022-08-20T20:26:26.007Z,4.90
2022-08-20T20:28:12.954Z,4.32
2022-08-20T20:29:46.389Z,4.35
2022-08-20T20:31:28.883Z,4.75
2022-08-20T20:33:19.327Z,4.43
2022-08-20T20:34:56.813Z,4.30
2022-08-20T20:36:37.754Z,4.68
2022-08-20T20:38:24.247Z,4.68
2022-08-20T20:40:07.108Z,4.60
2022-08-20T20:41:55.747Z,4.75
2022-08-20T20:43:33.750Z,4.40
2022-08-20T20:45:18.575Z,4.85
2022-08-20T20:47:03.824Z,4.50
2022-08-20T20:48:48.331Z,4.85
2022-08-20T20:50:34.358Z,4.20
2022-08-20T20:52:20.874Z,4.07
2022-08-20T20:53:58.163Z,4.68
2022-08-20T20:55:35.291Z,4.15
2022-08-20T20:57:25.568Z,5.13
2022-08-20T20:59:12.575Z,4.40
2022-08-20T21:00:49.228Z,4.53
2022-08-20T21:02:24.594Z,3.95
2022-08-20T21:03:58.439Z,4.40
2022-08-20T21:05:33.553Z,4.65
2022-08-20T21:07:13.114Z,4.15
2022-08-20T21:08:47.171Z,4.18
2022-08-20T21:10:25.791Z,4.35
2022-08-20T21:11:59.481Z,4.65
2022-08-20T21:13:32.947Z,4.18
2022-08-20T21:15:07.502Z,3.78
2022-08-20T21:16:41.479Z,4.30
2022-08-20T21:18:21.937Z,4.45
2022-08-20T21:20:00.890Z,4.57
2022-08-20T21:21:35.092Z,5.00
2022-08-20T21:23:09.048Z,4.53
2022-08-20T21:24:43.009Z,4.45